Aérodrome :
LOGIN :

S'inscrire | Disclaimer

   EN    FR    IT 

 










Légende :    VFR   VFR Marginal   IFR   IFR Intensif   IFR Très Intensif
Visi : 
Plafond : 
>= 8 km
>= 3000ft
5 à 8 km
1000 à 3000 ft
1500m à 5 km
500 à 1000 ft
800 à 1500m
200 à 500 ft
< 800m
< 200 ft
Symboles :   Orages  Brouillard  Fortes neiges  Fortes précipitations  Vent > 20 kt
SIGMETs :   Divers  Orages  Givrage  Turbulence  Onde Orograph.  Cendres Volcan.






- Altitude de l'aérodrome : 526 ft
- Code IATA : LTN


EGGW - London Luton

DERNIER METAR :
  • 211320Z AUTO 23018G28KT 9999 FEW028 07/02 Q0984

METARs EXPIRÉS :
  • 211250Z AUTO 23018KT 9999 BKN027 07/02 Q0985
  • 211220Z AUTO 23018KT 9999 FEW029 06/02 Q0985
  • 211150Z 22017KT 9999 FEW012 06/02 Q0985
  • 211120Z AUTO 23019KT 9999 FEW026 06/02 Q0985
  • 211050Z AUTO 23021G31KT 9999 BKN024 06/02 Q0985

TAF TAF EGGW
Valide du 21 à 12h jusqu'au 22 à 12h UTC


211056Z 2112/2212 23018G28KT 9999 FEW030
BECMG 2112/2115 24011KT
PROB30
TEMPO 2112/2113 8000 -SHRA BKN012
PROB30 2204/2210 7000
ATIS : +44 1582 395 204



MET'MAP, la Météo Aéronautique d'un coup d'oeil ! - Copyright ORBIFLY Décembre 2007 - Disclaimer

ORBIFLY MET'MAP TEAM :

Programmation & Développement : Alexandra Zaïnal
Sur une idée originale de : Baudouin d'Aumeries
Assistance à la programmation : Marc-Olivier Méhu
Soutien technique & logistique : Manuel Goepfert

Contact : metmap@orbifly.com




SOURCES & CREDITS :

   NOAA